createdAt,value
2018-06-11T00:03:01.805Z,100.00
2018-06-11T00:05:30.347Z,100.00
2018-06-11T00:07:58.811Z,100.00
2018-06-11T00:10:27.251Z,100.00
2018-06-11T00:12:55.729Z,100.00
2018-06-11T00:15:24.124Z,100.00
2018-06-11T00:17:52.572Z,100.00
2018-06-11T00:20:21.004Z,100.00
2018-06-11T00:22:49.458Z,100.00
2018-06-11T00:25:17.896Z,100.00
2018-06-11T00:27:46.365Z,100.00
2018-06-11T00:30:14.776Z,100.00
2018-06-11T00:32:43.222Z,100.00
2018-06-11T00:35:11.844Z,100.00
2018-06-11T00:37:40.291Z,100.00
2018-06-11T00:40:08.731Z,100.00
2018-06-11T00:42:37.176Z,100.00
2018-06-11T00:45:05.654Z,100.00
2018-06-11T00:47:34.100Z,100.00
2018-06-11T00:50:02.534Z,100.00
2018-06-11T00:52:30.994Z,100.00
2018-06-11T00:54:59.488Z,100.00
2018-06-11T00:57:27.939Z,100.00
2018-06-11T00:59:56.365Z,100.00
2018-06-11T01:02:25.022Z,100.00
2018-06-11T01:04:53.456Z,100.00
2018-06-11T01:07:21.876Z,100.00
2018-06-11T01:09:50.339Z,100.00
2018-06-11T01:12:18.775Z,100.00
2018-06-11T01:14:47.255Z,100.00
2018-06-11T01:17:15.701Z,100.00
2018-06-11T01:19:44.125Z,100.00
2018-06-11T01:22:13.052Z,100.00
2018-06-11T01:24:41.470Z,100.00
2018-06-11T01:27:09.866Z,100.00
2018-06-11T01:29:38.393Z,100.00
2018-06-11T01:32:06.819Z,100.00
2018-06-11T01:34:35.255Z,100.00
2018-06-11T01:37:03.684Z,100.00
2018-06-11T01:39:32.115Z,100.00
2018-06-11T01:42:00.544Z,100.00
2018-06-11T01:45:58.423Z,100.00
2018-06-11T01:48:26.821Z,100.00
2018-06-11T01:50:55.208Z,100.00
2018-06-11T01:53:23.641Z,100.00
2018-06-11T01:55:52.192Z,100.00
2018-06-11T01:58:20.627Z,100.00
2018-06-11T02:00:49.051Z,100.00
2018-06-11T02:03:17.491Z,100.00
2018-06-11T02:05:46.019Z,100.00
2018-06-11T02:08:14.599Z,100.00
2018-06-11T02:10:43.037Z,100.00
2018-06-11T02:13:11.547Z,100.00
2018-06-11T02:15:39.976Z,100.00
2018-06-11T02:18:08.683Z,100.00
2018-06-11T02:20:37.155Z,100.00
2018-06-11T02:23:05.603Z,100.00
2018-06-11T02:25:34.104Z,100.00
2018-06-11T02:28:03.252Z,100.00
2018-06-11T02:30:31.691Z,100.00
2018-06-11T02:33:00.560Z,100.00
2018-06-11T02:35:28.995Z,100.00
2018-06-11T02:37:57.571Z,100.00
2018-06-11T02:40:26.038Z,100.00
2018-06-11T02:42:54.505Z,100.00
2018-06-11T02:45:22.922Z,100.00
2018-06-11T02:47:51.365Z,100.00
2018-06-11T02:50:19.831Z,100.00
2018-06-11T02:52:48.225Z,100.00
2018-06-11T02:55:16.648Z,100.00
2018-06-11T02:57:45.068Z,100.00
2018-06-11T03:00:13.483Z,100.00
2018-06-11T03:02:42.155Z,100.00
2018-06-11T03:05:10.590Z,100.00
2018-06-11T03:07:39.243Z,100.00
2018-06-11T03:10:07.743Z,100.00
2018-06-11T03:12:36.227Z,100.00
2018-06-11T03:15:04.753Z,100.00
2018-06-11T03:17:33.157Z,100.00
2018-06-11T03:20:01.627Z,100.00
2018-06-11T03:22:30.035Z,100.00
2018-06-11T03:24:58.483Z,100.00
2018-06-11T03:27:26.911Z,100.00
2018-06-11T03:29:55.342Z,100.00
2018-06-11T03:32:24.099Z,100.00
2018-06-11T03:34:52.519Z,100.00
2018-06-11T03:37:21.351Z,100.00
2018-06-11T03:39:49.940Z,100.00
2018-06-11T03:42:18.376Z,100.00
2018-06-11T03:44:46.835Z,100.00
2018-06-11T03:47:15.268Z,100.00
2018-06-11T03:49:43.653Z,100.00
2018-06-11T03:52:12.070Z,100.00
2018-06-11T03:54:40.476Z,100.00
2018-06-11T03:57:08.919Z,100.00
2018-06-11T03:59:37.334Z,100.00
2018-06-11T04:02:05.812Z,100.00
2018-06-11T04:04:34.263Z,100.00
2018-06-11T04:07:03.027Z,100.00
2018-06-11T04:09:31.583Z,100.00
2018-06-11T04:12:00.257Z,100.00
2018-06-11T04:14:28.957Z,100.00
2018-06-11T04:16:57.416Z,100.00
2018-06-11T04:19:26.003Z,100.00
2018-06-11T04:21:54.441Z,100.00
2018-06-11T04:24:22.863Z,100.00
2018-06-11T04:26:52.356Z,100.00
2018-06-11T04:29:20.831Z,100.00
2018-06-11T04:31:49.264Z,100.00
2018-06-11T04:34:17.720Z,100.00
2018-06-11T04:36:46.159Z,100.00
2018-06-11T04:39:14.717Z,100.00
2018-06-11T04:41:43.178Z,100.00
2018-06-11T04:44:11.607Z,100.00
2018-06-11T04:46:40.052Z,100.00
2018-06-11T04:49:08.516Z,100.00
2018-06-11T04:51:36.987Z,100.00
2018-06-11T04:54:05.487Z,100.00
2018-06-11T04:56:34.353Z,100.00
2018-06-11T04:59:02.746Z,100.00
2018-06-11T05:01:31.204Z,100.00
2018-06-11T05:03:59.620Z,100.00
2018-06-11T05:06:28.069Z,100.00
2018-06-11T05:08:56.760Z,100.00
2018-06-11T05:11:25.222Z,100.00
2018-06-11T05:13:53.668Z,100.00
2018-06-11T05:16:22.172Z,100.00
2018-06-11T05:18:50.834Z,100.00
2018-06-11T05:21:19.253Z,100.00
2018-06-11T05:23:47.659Z,100.00
2018-06-11T05:26:16.094Z,100.00
2018-06-11T05:28:44.524Z,100.00
2018-06-11T05:31:12.924Z,100.00
2018-06-11T05:33:41.358Z,100.00
2018-06-11T05:36:09.780Z,100.00
2018-06-11T05:38:38.229Z,100.00
2018-06-11T05:41:07.227Z,100.00
2018-06-11T05:43:35.636Z,100.00
2018-06-11T05:46:04.093Z,100.00
2018-06-11T05:48:32.500Z,100.00
2018-06-11T05:51:00.984Z,99.79
2018-06-11T05:53:29.440Z,100.00
2018-06-11T05:55:57.859Z,100.00
2018-06-11T05:58:26.303Z,100.00
2018-06-11T06:00:54.715Z,100.00
2018-06-11T06:03:23.174Z,98.85
2018-06-11T06:05:51.583Z,100.00
2018-06-11T06:08:20.197Z,95.23
2018-06-11T06:10:48.695Z,94.58
2018-06-11T06:13:17.130Z,92.42
2018-06-11T06:15:45.789Z,89.80
2018-06-11T06:18:14.438Z,90.37
2018-06-11T06:20:42.869Z,91.36
2018-06-11T06:23:11.259Z,90.88
2018-06-11T06:25:39.944Z,89.51
2018-06-11T06:34:52.461Z,98.94
2018-06-11T06:37:20.813Z,96.79
2018-06-11T06:39:49.440Z,94.97
2018-06-11T06:42:17.887Z,96.09
2018-06-11T06:44:46.441Z,96.21
2018-06-11T06:47:14.868Z,97.13
2018-06-11T06:49:43.298Z,94.80
2018-06-11T06:52:11.778Z,96.08
2018-06-11T06:54:40.209Z,94.02
2018-06-11T06:57:08.654Z,91.87
2018-06-11T06:59:37.098Z,91.73
2018-06-11T07:02:05.728Z,94.42
2018-06-11T07:04:34.388Z,93.55
2018-06-11T07:07:02.867Z,91.50
2018-06-11T07:09:31.273Z,92.65
2018-06-11T07:11:59.739Z,90.89
2018-06-11T07:14:28.158Z,92.62
2018-06-11T07:16:56.913Z,91.16
2018-06-11T07:19:25.355Z,91.45
2018-06-11T07:21:53.822Z,91.86
2018-06-11T07:24:22.257Z,92.43
2018-06-11T07:26:50.713Z,92.29
2018-06-11T07:29:19.116Z,87.97
2018-06-11T07:31:48.257Z,86.12
2018-06-11T07:34:16.679Z,86.25
2018-06-11T07:36:45.105Z,84.90
2018-06-11T07:39:13.753Z,84.46
2018-06-11T07:41:42.279Z,82.53
2018-06-11T07:44:10.710Z,84.28
2018-06-11T07:46:39.135Z,86.09
2018-06-11T07:49:07.565Z,80.76
2018-06-11T07:51:36.017Z,80.91
2018-06-11T07:54:04.454Z,80.55
2018-06-11T07:56:32.913Z,80.37
2018-06-11T07:59:01.295Z,79.69
2018-06-11T08:01:29.815Z,76.56
2018-06-11T08:03:58.188Z,78.60
2018-06-11T08:06:26.672Z,78.29
2018-06-11T08:08:55.341Z,76.61
2018-06-11T08:11:23.772Z,75.62
2018-06-11T08:13:52.475Z,75.40
2018-06-11T08:16:20.867Z,78.76
2018-06-11T08:18:49.294Z,75.43
2018-06-11T08:21:17.929Z,74.32
2018-06-11T08:23:46.322Z,74.25
2018-06-11T08:26:14.746Z,73.72
2018-06-11T08:28:43.154Z,74.85
2018-06-11T08:31:11.599Z,72.88
2018-06-11T08:33:40.011Z,72.53
2018-06-11T08:36:08.551Z,72.98
2018-06-11T08:38:37.187Z,72.08
2018-06-11T08:41:05.612Z,71.97
2018-06-11T08:43:34.068Z,71.27
2018-06-11T08:46:02.481Z,72.51
2018-06-11T08:48:30.934Z,72.00
2018-06-11T08:50:59.424Z,69.71
2018-06-11T08:53:27.855Z,70.07
2018-06-11T08:55:56.265Z,69.39
2018-06-11T08:58:24.675Z,69.72
2018-06-11T09:00:53.118Z,67.42
2018-06-11T09:03:21.528Z,66.54
2018-06-11T09:05:49.966Z,65.37
2018-06-11T09:08:18.381Z,64.78
2018-06-11T09:10:46.792Z,64.53
2018-06-11T09:13:15.456Z,63.72
2018-06-11T09:15:44.136Z,65.07
2018-06-11T09:18:13.155Z,62.62
2018-06-11T09:20:41.456Z,62.89
2018-06-11T09:23:09.856Z,65.53
2018-06-11T09:25:38.273Z,68.11
2018-06-11T09:28:06.681Z,64.60
2018-06-11T09:30:35.104Z,61.73
2018-06-11T09:33:03.768Z,60.62
2018-06-11T09:35:32.188Z,59.64
2018-06-11T09:38:00.650Z,59.56
2018-06-11T09:40:29.059Z,54.51
2018-06-11T09:42:57.468Z,54.04
2018-06-11T09:45:25.979Z,57.18
2018-06-11T09:47:54.387Z,55.35
2018-06-11T09:50:22.841Z,55.58
2018-06-11T09:52:51.274Z,56.77
2018-06-11T09:55:19.643Z,61.72
2018-06-11T09:57:48.044Z,59.38
2018-06-11T10:00:21.726Z,59.17
2018-06-11T10:02:50.155Z,56.62
2018-06-11T10:05:18.587Z,53.63
2018-06-11T10:07:46.981Z,54.22
2018-06-11T10:10:15.386Z,50.71
2018-06-11T10:12:43.835Z,48.49
2018-06-11T10:15:12.249Z,49.56
2018-06-11T10:17:40.648Z,47.33
2018-06-11T10:20:09.066Z,50.38
2018-06-11T10:22:37.479Z,49.10
2018-06-11T10:25:05.958Z,49.19
2018-06-11T10:27:34.379Z,49.63
2018-06-11T10:30:02.947Z,49.77
2018-06-11T10:32:31.684Z,47.44
2018-06-11T10:35:00.331Z,51.70
2018-06-11T10:37:29.076Z,47.25
2018-06-11T10:39:57.443Z,48.42
2018-06-11T10:42:25.881Z,49.71
2018-06-11T10:44:54.342Z,49.41
2018-06-11T10:47:22.728Z,49.80
2018-06-11T10:49:51.129Z,50.30
2018-06-11T10:52:19.522Z,49.75
2018-06-11T10:54:47.939Z,50.96
2018-06-11T10:57:16.342Z,48.32
2018-06-11T10:59:44.801Z,48.14
2018-06-11T11:02:13.252Z,43.00
2018-06-11T11:04:41.829Z,44.02
2018-06-11T11:07:10.543Z,43.26
2018-06-11T11:09:38.938Z,46.10
2018-06-11T11:12:07.612Z,42.42
2018-06-11T11:14:36.318Z,47.22
2018-06-11T11:17:04.721Z,45.46
2018-06-11T11:19:33.147Z,49.07
2018-06-11T11:22:01.755Z,47.47
2018-06-11T11:24:30.414Z,45.80
2018-06-11T11:26:58.825Z,44.65
2018-06-11T11:29:27.260Z,44.17
2018-06-11T11:31:55.882Z,42.56
2018-06-11T11:34:24.599Z,37.30
2018-06-11T11:36:53.271Z,38.44
2018-06-11T11:39:21.710Z,35.14
2018-06-11T11:41:50.110Z,33.58
2018-06-11T11:44:18.514Z,35.71
2018-06-11T11:46:46.948Z,38.09
2018-06-11T11:49:15.339Z,37.03
2018-06-11T11:51:43.785Z,37.19
2018-06-11T11:54:12.172Z,40.10
2018-06-11T11:56:40.574Z,36.67
2018-06-11T11:59:08.999Z,35.04
2018-06-11T12:01:37.432Z,33.29
2018-06-11T12:04:05.867Z,32.29
2018-06-11T12:06:34.263Z,28.12
2018-06-11T12:09:03.003Z,29.05
2018-06-11T12:11:31.399Z,27.66
2018-06-11T12:13:59.924Z,34.31
2018-06-11T12:16:28.381Z,31.08
2018-06-11T12:18:56.800Z,35.83
2018-06-11T12:21:25.228Z,30.59
2018-06-11T12:23:53.615Z,28.47
2018-06-11T12:26:22.031Z,28.36
2018-06-11T12:28:50.518Z,29.00
2018-06-11T12:31:18.988Z,33.14
2018-06-11T12:33:47.359Z,31.61
2018-06-11T12:36:15.968Z,31.10
2018-06-11T12:38:47.603Z,34.65
2018-06-11T12:41:16.882Z,33.94
2018-06-11T12:43:45.342Z,33.36
2018-06-11T12:46:13.749Z,32.77
2018-06-11T12:48:42.156Z,32.78
2018-06-11T12:51:10.626Z,32.81
2018-06-11T12:53:39.236Z,33.97
2018-06-11T12:56:08.114Z,29.87
2018-06-11T12:58:36.547Z,31.76
2018-06-11T13:01:04.988Z,28.49
2018-06-11T13:03:33.440Z,26.65
2018-06-11T13:06:01.872Z,28.41
2018-06-11T13:08:30.484Z,30.64
2018-06-11T13:10:58.916Z,29.10
2018-06-11T13:13:27.457Z,29.58
2018-06-11T13:15:55.883Z,29.38
2018-06-11T13:18:24.343Z,29.74
2018-06-11T13:20:52.772Z,30.33
2018-06-11T13:23:21.193Z,27.28
2018-06-11T13:25:49.640Z,27.00
2018-06-11T13:28:18.047Z,27.97
2018-06-11T13:30:46.457Z,29.98
2018-06-11T13:33:15.220Z,31.89
2018-06-11T13:35:43.626Z,35.81
2018-06-11T13:38:12.028Z,30.60
2018-06-11T13:40:40.445Z,31.22
2018-06-11T13:43:08.847Z,27.84
2018-06-11T13:45:37.338Z,27.95
2018-06-11T13:48:06.247Z,29.02
2018-06-11T13:50:34.673Z,34.11
2018-06-11T13:53:03.088Z,34.25
2018-06-11T13:55:31.508Z,32.20
2018-06-11T13:57:59.965Z,26.79
2018-06-11T14:00:28.363Z,31.01
2018-06-11T14:02:56.798Z,34.06
2018-06-11T14:05:25.208Z,32.25
2018-06-11T14:07:53.668Z,26.14
2018-06-11T14:10:22.163Z,29.53
2018-06-11T14:12:50.595Z,26.00
2018-06-11T14:15:19.063Z,27.69
2018-06-11T14:17:47.479Z,28.55
2018-06-11T14:20:15.902Z,30.76
2018-06-11T14:22:44.382Z,27.67
2018-06-11T14:25:13.053Z,25.72
2018-06-11T14:27:41.511Z,26.14
2018-06-11T14:30:09.970Z,28.06
2018-06-11T14:32:38.412Z,24.06
2018-06-11T14:35:06.923Z,24.43
2018-06-11T14:37:35.372Z,24.64
2018-06-11T14:40:03.911Z,25.46
2018-06-11T14:42:32.444Z,24.86
2018-06-11T14:45:00.884Z,24.66
2018-06-11T14:47:31.128Z,25.51
2018-06-11T14:49:59.568Z,25.50
2018-06-11T14:52:27.968Z,24.41
2018-06-11T14:56:26.139Z,29.48
2018-06-11T14:58:54.810Z,26.88
2018-06-11T15:01:23.784Z,27.58
2018-06-11T15:03:52.230Z,29.28
2018-06-11T15:06:20.648Z,35.15
2018-06-11T15:08:49.088Z,27.29
2018-06-11T15:11:18.117Z,27.68
2018-06-11T15:13:46.974Z,28.63
2018-06-11T15:16:15.384Z,27.98
2018-06-11T15:18:44.038Z,29.97
2018-06-11T15:21:12.512Z,29.01
2018-06-11T15:23:41.136Z,30.85
2018-06-11T15:26:09.761Z,29.02
2018-06-11T15:28:38.184Z,28.32
2018-06-11T15:31:06.997Z,28.50
2018-06-11T15:33:35.430Z,27.48
2018-06-11T15:36:03.852Z,27.28
2018-06-11T15:38:32.264Z,29.53
2018-06-11T15:41:00.960Z,29.94
2018-06-11T15:43:29.396Z,33.95
2018-06-11T15:45:57.806Z,34.81
2018-06-11T15:48:26.245Z,30.92
2018-06-11T15:50:54.828Z,32.63
2018-06-11T15:53:23.359Z,35.91
2018-06-11T15:55:51.793Z,39.15
2018-06-11T15:58:20.189Z,36.65
2018-06-11T16:00:48.607Z,38.59
2018-06-11T16:03:17.029Z,35.89
2018-06-11T16:05:45.447Z,35.92
2018-06-11T16:08:14.095Z,39.72
2018-06-11T16:10:42.520Z,37.71
2018-06-11T16:13:10.985Z,37.05
2018-06-11T16:15:39.456Z,35.81
2018-06-11T16:18:08.004Z,36.57
2018-06-11T16:20:36.504Z,44.50
2018-06-11T16:23:04.923Z,40.41
2018-06-11T16:25:33.392Z,40.04
2018-06-11T16:28:01.819Z,43.38
2018-06-11T16:30:30.462Z,39.84
2018-06-11T16:32:59.149Z,40.56
2018-06-11T16:35:27.811Z,41.98
2018-06-11T16:37:56.224Z,38.97
2018-06-11T16:40:24.639Z,40.53
2018-06-11T16:42:53.058Z,39.17
2018-06-11T16:45:21.497Z,44.83
2018-06-11T16:47:49.924Z,43.40
2018-06-11T16:50:18.421Z,44.17
2018-06-11T16:52:46.897Z,42.98
2018-06-11T16:55:15.399Z,39.97
2018-06-11T16:57:44.016Z,42.71
2018-06-11T17:00:12.494Z,47.69
2018-06-11T17:02:40.915Z,44.04
2018-06-11T17:05:09.369Z,42.90
2018-06-11T17:07:38.053Z,41.11
2018-06-11T17:10:06.825Z,42.19
2018-06-11T17:12:35.319Z,41.86
2018-06-11T17:15:03.972Z,43.14
2018-06-11T17:17:32.395Z,44.97
2018-06-11T17:20:00.819Z,48.42
2018-06-11T17:22:29.497Z,49.40
2018-06-11T17:24:58.074Z,50.60
2018-06-11T17:27:26.548Z,51.57
2018-06-11T17:29:55.311Z,53.21
2018-06-11T17:32:23.715Z,52.78
2018-06-11T17:34:52.166Z,53.44
2018-06-11T17:37:20.760Z,55.18
2018-06-11T17:39:49.223Z,55.33
2018-06-11T17:42:18.157Z,56.77
2018-06-11T17:44:46.596Z,56.91
2018-06-11T17:47:15.047Z,59.41
2018-06-11T17:49:43.491Z,60.89
2018-06-11T17:52:12.085Z,61.17
2018-06-11T17:54:40.490Z,58.39
2018-06-11T17:57:08.913Z,59.20
2018-06-11T17:59:37.400Z,60.46
2018-06-11T18:02:06.148Z,61.37
2018-06-11T18:04:34.607Z,60.59
2018-06-11T18:07:03.094Z,60.54
2018-06-11T18:09:31.501Z,61.37
2018-06-11T18:12:00.107Z,62.08
2018-06-11T18:14:28.576Z,62.06
2018-06-11T18:16:56.954Z,62.21
2018-06-11T18:19:25.378Z,63.14
2018-06-11T18:21:53.793Z,62.64
2018-06-11T18:24:22.388Z,63.50
2018-06-11T18:26:50.941Z,64.44
2018-06-11T18:29:19.517Z,64.32
2018-06-11T18:31:48.336Z,65.53
2018-06-11T18:34:16.782Z,65.43
2018-06-11T18:36:45.214Z,64.66
2018-06-11T18:39:13.971Z,67.05
2018-06-11T18:41:42.406Z,67.64
2018-06-11T18:44:10.881Z,69.07
2018-06-11T18:46:39.334Z,68.03
2018-06-11T18:49:07.728Z,67.08
2018-06-11T18:51:36.213Z,69.15
2018-06-11T18:54:04.642Z,70.11
2018-06-11T18:56:33.168Z,69.92
2018-06-11T18:59:01.592Z,69.46
2018-06-11T19:01:30.008Z,71.00
2018-06-11T19:03:58.550Z,70.61
2018-06-11T19:06:26.980Z,70.80
2018-06-11T19:08:55.486Z,72.05
2018-06-11T19:11:23.916Z,72.62
2018-06-11T19:13:52.354Z,72.02
2018-06-11T19:16:21.044Z,73.99
2018-06-11T19:18:49.502Z,72.12
2018-06-11T19:21:17.926Z,73.51
2018-06-11T19:23:46.406Z,73.66
2018-06-11T19:26:15.231Z,73.34
2018-06-11T19:28:43.627Z,72.55
2018-06-11T19:31:12.076Z,73.42
2018-06-11T19:33:40.540Z,73.00
2018-06-11T19:36:08.979Z,73.80
2018-06-11T19:38:37.721Z,74.19
2018-06-11T19:41:06.195Z,74.51
2018-06-11T19:43:34.638Z,73.65
2018-06-11T19:46:03.055Z,74.04
2018-06-11T19:48:31.512Z,75.71
2018-06-11T19:51:00.204Z,74.62
2018-06-11T19:53:28.754Z,72.63
2018-06-11T19:55:57.237Z,72.67
2018-06-11T19:58:25.645Z,73.04
2018-06-11T20:00:54.048Z,73.57
2018-06-11T20:03:22.569Z,73.78
2018-06-11T20:05:50.982Z,74.31
2018-06-11T20:08:19.461Z,78.19
2018-06-11T20:10:47.896Z,100.00
2018-06-11T20:13:16.464Z,100.00
2018-06-11T20:15:45.071Z,100.00
2018-06-11T20:18:13.539Z,100.00
2018-06-11T20:20:42.238Z,100.00
2018-06-11T20:23:10.655Z,100.00
2018-06-11T20:25:39.109Z,100.00
2018-06-11T20:28:07.554Z,100.00
2018-06-11T20:30:35.988Z,100.00
2018-06-11T20:33:04.444Z,100.00
2018-06-11T20:35:32.864Z,100.00
2018-06-11T20:38:01.395Z,100.00
2018-06-11T20:40:29.867Z,100.00
2018-06-11T20:42:58.307Z,100.00
2018-06-11T20:45:27.006Z,100.00
2018-06-11T20:47:55.831Z,100.00
2018-06-11T20:50:24.294Z,100.00
2018-06-11T20:52:52.718Z,100.00
2018-06-11T20:55:21.255Z,100.00
2018-06-11T20:57:49.724Z,100.00
2018-06-11T21:00:18.218Z,100.00
2018-06-11T21:02:47.058Z,100.00
2018-06-11T21:05:15.787Z,100.00
2018-06-11T21:07:45.177Z,100.00
2018-06-11T21:10:13.623Z,100.00
2018-06-11T21:12:42.059Z,100.00
2018-06-11T21:15:10.462Z,100.00
2018-06-11T21:17:38.935Z,100.00
2018-06-11T21:20:07.393Z,100.00
2018-06-11T21:22:35.876Z,100.00
2018-06-11T21:25:04.350Z,100.00
2018-06-11T21:27:33.751Z,100.00
2018-06-11T21:30:02.192Z,100.00
2018-06-11T21:32:30.606Z,100.00
2018-06-11T21:34:59.099Z,100.00
2018-06-11T21:37:27.753Z,100.00
2018-06-11T21:39:56.137Z,100.00
2018-06-11T21:42:24.539Z,100.00
2018-06-11T21:44:52.961Z,100.00
2018-06-11T21:47:21.722Z,100.00
2018-06-11T21:49:50.140Z,100.00
2018-06-11T21:52:18.544Z,100.00
2018-06-11T21:54:46.994Z,100.00
2018-06-11T21:57:15.415Z,100.00
2018-06-11T21:59:44.081Z,100.00
2018-06-11T22:02:12.483Z,100.00
2018-06-11T22:04:43.055Z,100.00
2018-06-11T22:07:11.622Z,100.00
2018-06-11T22:09:40.015Z,100.00
2018-06-11T22:12:08.742Z,100.00
2018-06-11T22:14:37.124Z,100.00
2018-06-11T22:17:05.601Z,100.00
2018-06-11T22:19:34.048Z,100.00
2018-06-11T22:22:02.468Z,100.00
2018-06-11T22:24:30.888Z,100.00
2018-06-11T22:26:59.319Z,100.00
2018-06-11T22:29:27.720Z,100.00
2018-06-11T22:31:56.167Z,100.00
2018-06-11T22:34:24.582Z,100.00
2018-06-11T22:36:53.027Z,100.00
2018-06-11T22:39:21.455Z,100.00
2018-06-11T22:41:49.879Z,100.00
2018-06-11T22:44:18.293Z,100.00
2018-06-11T22:46:46.711Z,100.00
2018-06-11T22:49:15.180Z,100.00
2018-06-11T22:51:43.598Z,100.00
2018-06-11T22:54:11.990Z,100.00
2018-06-11T22:56:40.448Z,100.00
2018-06-11T22:59:08.843Z,100.00
2018-06-11T23:01:37.235Z,100.00
2018-06-11T23:04:05.652Z,100.00
2018-06-11T23:06:34.115Z,100.00
2018-06-11T23:09:02.595Z,100.00
2018-06-11T23:11:30.987Z,100.00
2018-06-11T23:13:59.479Z,100.00
2018-06-11T23:16:27.923Z,100.00
2018-06-11T23:18:56.559Z,100.00
2018-06-11T23:21:24.987Z,100.00
2018-06-11T23:23:53.562Z,100.00
2018-06-11T23:26:22.221Z,100.00
2018-06-11T23:28:50.904Z,100.00
2018-06-11T23:31:19.370Z,100.00
2018-06-11T23:33:47.768Z,100.00
2018-06-11T23:36:16.375Z,100.00
2018-06-11T23:38:44.769Z,100.00
2018-06-11T23:41:13.175Z,100.00
2018-06-11T23:43:41.607Z,100.00
2018-06-11T23:46:10.176Z,100.00
2018-06-11T23:48:38.623Z,100.00
2018-06-11T23:51:07.372Z,100.00
2018-06-11T23:53:35.772Z,100.00
2018-06-11T23:56:04.204Z,100.00
2018-06-11T23:58:33.034Z,100.00
